• Join FlightAware (Why Join?)
  • Login
  • US Flag 
10:42AM EDT


 

Airport Tracker/Info


-or-


 

Live Flight TrackerFlight Track Log ✈ EJA982 ✈ 09-May-2013 ✈ KHPN - KPBI

Flight Track Log - Related Links

Times and Time Zones

All times are in EDT time to prevent confusion due to time zone crossing. See the EJA982 flight status page for this flight to view local times or setup timezone preferences in your user account.

Time Position Orientation Groundspeed Altitude Reporting Facility
EDT Latitude Longitude Course Direction KTS MPH feet Rate Location/Type
05:27PM 41.0333 -73.7500 270° West 183 211 4,300  Level New York TRACON
05:28PM 41.0167 -73.8167 252° West 211 243 6,900 3,000 Climbing New York TRACON
05:29PM 40.9667 -73.8667 217° Southwest 257 296 10,000 2,520 Climbing New York TRACON
05:30PM 40.9000 -73.9167 210° Southwest 287 330 12,000 960 Climbing New York TRACON
05:31PM 40.8333 -73.9833 217° Southwest 305 351 12,000  Level New York TRACON
05:32PM 40.7667 -74.0500 217° Southwest 295 339 12,000  Level New York TRACON
05:33PM 40.7000 -74.1167 217° Southwest 296 341 12,000 420 Level New York TRACON
05:34PM 40.6333 -74.1833 220° Southwest 298 343 12,900 1,440 Climbing New York TRACON
05:35PM 40.5500 -74.1833 180° South 325 374 14,900 1,560 Climbing New York TRACON
05:36PM 40.3928 -74.2100 187° South 378 435 17,000 780 Climbing New York Center
05:37PM 40.2861 -74.2236 186° South 385 443 17,000 120 Level New York Center
05:38PM 40.1794 -74.2347 185° South 385 443 17,300 1,080 Climbing New York Center
05:39PM 40.0892 -74.2439 184° South 416 479 19,000 1,980 Climbing Washington Center
05:40PM 39.9731 -74.2786 193° South 397 457 21,300 1,320 Climbing Washington Center
05:41PM 39.8864 -74.3639 217° Southwest 380 437 22,000 300 Climbing Washington Center
05:42PM 39.7978 -74.4544 218° Southwest 394 453 22,000 180 Level Washington Center
05:43PM 39.7217 -74.5583 226° Southwest 401 461 22,400 1,320 Climbing Washington Center
05:44PM 39.6433 -74.6644 226° Southwest 401 461 24,700 2,280 Climbing Washington Center
05:45PM 39.5628 -74.7706 225° Southwest 408 470 27,000 2,040 Climbing Washington Center
05:46PM 39.4781 -74.8817 225° Southwest 420 483 28,900 1,740 Climbing Washington Center
05:47PM 39.3911 -74.9956 225° Southwest 432 497 30,600 1,680 Climbing Washington Center
05:48PM 39.2958 -75.1036 221° Southwest 444 511 32,300 1,680 Climbing Washington Center
05:49PM 39.1689 -75.1714 202° Southwest 465 535 34,000 1,680 Climbing Washington Center
05:50PM 39.0356 -75.2256 198° South 490 564 35,700 1,680 Climbing Washington Center
05:51PM 38.9044 -75.2822 199° South 501 577 37,500 1,620 Climbing Washington Center
05:52PM 38.7733 -75.3333 197° South 501 577 39,100 1,560 Climbing Washington Center
05:53PM 38.6483 -75.3897 199° South 494 568 40,600 1,320 Climbing Washington Center
05:54PM 38.5211 -75.4378 196° South 484 557 41,800 1,020 Climbing Washington Center
05:55PM 38.3983 -75.4883 198° South 478 550 42,700 600 Climbing Washington Center
05:56PM 38.2794 -75.5519 203° Southwest 478 550 43,000 120 Climbing Washington Center
05:57PM 38.1586 -75.6233 205° Southwest 478 550 43,000  Level Washington Center
05:58PM 38.0272 -75.7050 206° Southwest 478 550 43,000  Level Washington Center
05:59PM 37.9206 -75.7839 210° Southwest 483 556 43,000  Level Washington Center
06:00PM 37.7953 -75.8519 203° Southwest 488 562 43,000  Level Washington Center
06:01PM 37.6764 -75.9328 208° Southwest 488 562 43,000  Level Washington Center
06:02PM 37.5531 -76.0056 205° Southwest 488 562 43,000  Level Washington Center
06:03PM 37.4297 -76.0808 206° Southwest 488 562 43,000  Level Washington Center
06:04PM 37.3064 -76.1583 207° Southwest 488 562 43,000  Level Washington Center
06:05PM 37.1744 -76.2228 201° Southwest 493 567 43,000  Level Washington Center
06:06PM 37.0428 -76.2761 198° South 499 574 43,000  Level Washington Center
06:07PM 36.9089 -76.3297 198° South 504 580 43,000  Level Washington Center
06:08PM 36.7794 -76.3828 198° South 504 580 43,000  Level Washington Center
06:09PM 36.6369 -76.4436 199° South 504 580 43,000  Level Washington Center
06:10PM 36.5053 -76.4964 198° South 504 580 43,000  Level Washington Center
06:11PM 36.3714 -76.5517 198° South 504 580 43,000  Level Washington Center
06:12PM 36.2394 -76.6014 197° South 504 580 43,000  Level Washington Center
06:13PM 36.1056 -76.6539 198° South 504 580 43,000  Level Washington Center
06:14PM 35.9694 -76.7058 197° South 504 580 43,000  Level Washington Center
06:15PM 35.8375 -76.7603 198° South 504 580 43,000  Level Washington Center
06:16PM 35.7014 -76.8094 196° South 504 580 43,000  Level Washington Center
06:17PM 35.5861 -76.8589 199° South 504 580 43,000  Level Washington Center
06:18PM 35.4497 -76.9153 199° South 504 580 43,000  Level Washington Center
06:19PM 35.3136 -76.9667 197° South 504 580 43,000  Level Washington Center
06:20PM 35.1772 -77.0178 197° South 504 580 43,000  Level Washington Center
06:21PM 35.0306 -77.0783 199° South 509 586 43,000  Level Washington Center
06:22PM 34.9089 -77.1244 197° South 504 580 43,000  Level Washington Center
06:23PM 34.7600 -77.1822 198° South 504 580 43,000  Level Washington Center
06:24PM 34.6236 -77.2350 198° South 504 580 43,000  Level Washington Center
06:25PM 34.4875 -77.2878 198° South 504 580 43,000  Level Washington Center
06:26PM 34.3531 -77.3403 198° South 504 580 43,000  Level Washington Center
06:27PM 34.2189 -77.3903 197° South 504 580 43,000  Level Washington Center
06:28PM 34.0825 -77.4400 197° South 509 586 43,000  Level Washington Center
06:29PM 33.9789 -77.4786 197° South 504 580 43,000  Level Jacksonville Center
06:30PM 33.8414 -77.5319 198° South 528 608 43,000  Level Jacksonville Center
06:31PM 33.7058 -77.5828 197° South 517 595 43,000  Level Jacksonville Center
06:32PM 33.5889 -77.6272 198° South 506 582 43,000  Level Jacksonville Center
06:33PM 33.4533 -77.6775 197° South 506 582 43,000  Level Jacksonville Center
06:34PM 33.3175 -77.7253 196° South 512 589 43,000  Level Jacksonville Center
06:35PM 33.1797 -77.7778 198° South 512 589 43,000  Level Jacksonville Center
06:36PM 33.0483 -77.8275 198° South 507 583 43,000  Level Jacksonville Center
06:37PM 32.9103 -77.8750 196° South 507 583 43,000  Level Jacksonville Center
06:38PM 32.7767 -77.9267 198° South 507 583 43,000  Level Jacksonville Center
06:39PM 32.6408 -77.9761 197° South 512 589 43,000  Level Jacksonville Center
06:40PM 32.5050 -78.0228 196° South 512 589 43,000  Level Jacksonville Center
06:41PM 32.3692 -78.0719 197° South 512 589 43,000  Level Jacksonville Center
06:42PM 32.2331 -78.1208 197° South 512 589 43,000  Level Jacksonville Center
06:43PM 32.0994 -78.1694 197° South 512 589 43,000  Level Jacksonville Center
06:44PM 31.9636 -78.2206 198° South 507 583 43,000  Level Jacksonville Center
06:45PM 31.8214 -78.2717 197° South 512 589 43,000  Level Jacksonville Center
06:46PM 31.6833 -78.3250 198° South 512 589 43,000  Level Jacksonville Center
06:47PM 31.5475 -78.3756 198° South 506 582 43,000  Level Jacksonville Center
06:48PM 31.4133 -78.4211 196° South 515 593 43,000  Level Jacksonville Center
06:49PM 31.2775 -78.4714 198° South 510 587 43,000  Level Jacksonville Center
06:50PM 31.1453 -78.5164 196° South 504 580 43,000  Level Jacksonville Center
06:51PM 31.0050 -78.5642 196° South 510 587 43,000  Level Jacksonville Center
06:52PM 30.8711 -78.6136 198° South 510 587 43,000  Level Jacksonville Center
06:53PM 30.7411 -78.6606 197° South 503 579 43,000  Level Jacksonville Center
06:54PM 30.6006 -78.7081 196° South 511 588 43,000  Level Jacksonville Center
06:55PM 30.4678 -78.7564 197° South 477 549 43,000  Level Miami Center
06:56PM 30.3278 -78.7950 193° South 503 579 43,000  Level Miami Center
06:57PM 30.1856 -78.8283 191° South 514 592 43,000  Level Miami Center
06:58PM 30.0475 -78.8592 191° South 514 592 43,000  Level Miami Center
06:59PM 29.9072 -78.8950 192° South 514 592 43,000  Level Miami Center
07:00PM 29.7711 -78.9308 193° South 508 585 43,000  Level Miami Center
07:01PM 29.6289 -78.9589 190° South 512 589 43,000  Level Miami Center
07:02PM 29.4950 -78.9922 192° South 501 577 43,000  Level Miami Center
07:03PM 29.3589 -79.0206 190° South 501 577 43,000  Level Miami Center
07:04PM 29.2228 -79.0536 192° South 506 582 43,000  Level Miami Center
07:05PM 29.0825 -79.0864 192° South 511 588 43,000 -780 Level Miami Center
07:06PM 28.9403 -79.1167 191° South 511 588 41,500 -2,160 Descending Miami Center
07:07PM 28.8019 -79.1494 192° South 511 588 38,700 -2,820 Descending Miami Center
07:08PM 28.6597 -79.1772 190° South 511 588 35,900 -2,760 Descending Miami Center
07:09PM 28.5172 -79.2097 191° South 511 588 33,200 -2,700 Descending Miami Center
07:10PM 28.3853 -79.2400 191° South 504 580 30,600 -2,640 Descending Miami Center
07:11PM 28.2450 -79.2722 191° South 504 580 28,000 -2,700 Descending Miami Center
07:12PM 28.1044 -79.3022 191° South 509 586 25,300 -2,640 Descending Miami Center
07:13PM 27.9764 -79.3536 200° South 503 579 22,800 -2,460 Descending Miami Center
07:14PM 27.8622 -79.4239 209° Southwest 478 550 20,400 -2,220 Descending Miami Center
07:15PM 27.7544 -79.4942 210° Southwest 464 534 18,400 -2,100 Descending Miami Center
07:16PM 27.6406 -79.5667 209° Southwest 440 506 16,200 -2,100 Descending Miami Center
07:17PM 27.5369 -79.6297 208° Southwest 435 501 14,200 -2,040 Descending Miami Center
07:18PM 27.4461 -79.6861 209° Southwest 406 467 12,200 -1,860 Descending Miami Center
07:19PM 27.3806 -79.7267 209° Southwest 336 387 10,500 -1,740 Descending Miami Center
07:20PM 27.3108 -79.7692 208° Southwest 303 349 8,800 -1,260 Descending Miami Center
07:21PM 27.2408 -79.8167 211° Southwest 269 310 8,000 -480 Descending Miami Center
07:22PM 27.1733 -79.8569 208° Southwest 275 316 7,900  Descending Miami Center
07:23PM 27.1036 -79.8972 207° Southwest 275 316 8,000 -600 Climbing Miami Center
07:24PM 27.0422 -79.9328 207° Southwest 275 316 6,700 -1,500 Descending Miami Center
07:25PM 26.9725 -79.9731 207° Southwest 269 310 5,000 -1,440 Descending Miami Center
07:26PM 26.9131 -80.0156 213° Southwest 264 304 3,900 -600 Descending Miami Center
07:27PM 26.8642 -80.0608 220° Southwest 251 289 3,800 -120 Descending Miami Center
07:29PM 26.7927 -80.2200 265° West  Level FlightAware Approximate
07:36PM 26.6832 -80.0956 110° East  Level Estimated
07:37PM 26.6832 -80.0956 110° East  Level Estimated
07:38PM 26.6832 -80.0956 110° East  Level Estimated
07:39PM 26.6832 -80.0956 110° East  Level Estimated
07:40PM 26.6832 -80.0956 110° East  Level Estimated
07:41PM 26.6832 -80.0956 110° East  Level Estimated
07:42PM 26.6832 -80.0956 110° East  Level Estimated
07:43PM 26.6832 -80.0956 110° East  Level Estimated
07:44PM 26.6832 -80.0956 110° East  Level Estimated
07:45PM 26.6832 -80.0956 110° East  Level Estimated